Time;durP1;ratioP1;P1;durP2;ratioP2;P2;SDS_P1;SDS_P2;PMS_P1;PMS_P2;Temp;Humidity;BMP_temperature;BMP_pressure;BME280_temperature;BME280_humidity;BME280_pressure;Samples;Min_cycle;Max_cycle;Signal;HPM_P1;HPM_P2
2022/02/27 00:01:08;;;;;;;2.63;1.30;;;;;;;8.29;32.89;100431.53;5078388;28;20044;-66
2022/02/27 00:03:34;;;;;;;4.73;1.67;;;;;;;8.29;33.26;100436.84;5044527;28;20044;-65
2022/02/27 00:06:00;;;;;;;2.30;1.15;;;;;;;8.24;33.01;100433.75;5077883;28;20453;-66
2022/02/27 00:08:26;;;;;;;4.72;1.30;;;;;;;8.22;32.56;100440.91;5044573;28;20058;-65
2022/02/27 00:10:52;;;;;;;2.60;1.10;;;;;;;8.28;32.82;100451.03;5061190;28;20513;-65
2022/02/27 00:13:17;;;;;;;3.53;1.10;;;;;;;8.21;32.25;100455.13;5044657;28;20040;-65
2022/02/27 00:15:43;;;;;;;1.80;1.00;;;;;;;8.22;32.28;100454.16;5060945;28;20497;-65
2022/02/27 00:18:09;;;;;;;2.40;1.07;;;;;;;8.23;32.46;100446.13;5061241;28;20135;-65
2022/02/27 00:20:35;;;;;;;1.80;1.00;;;;;;;8.31;32.22;100456.09;5060845;28;20050;-65
2022/02/27 00:23:01;;;;;;;1.93;1.20;;;;;;;8.29;32.13;100458.00;5077533;28;20054;-65
2022/02/27 00:25:26;;;;;;;1.53;1.00;;;;;;;8.28;32.29;100453.69;5077702;28;20046;-65
2022/02/27 00:27:53;;;;;;;2.08;1.10;;;;;;;8.24;32.39;100447.78;5094267;28;20411;-65
2022/02/27 00:30:21;;;;;;;5.70;1.33;;;;;;;8.32;32.02;100449.81;5077157;28;20445;-65
2022/02/27 00:32:46;;;;;;;2.80;1.08;;;;;;;8.31;31.75;100466.66;5060233;28;20097;-65
2022/02/27 00:35:12;;;;;;;3.10;1.23;;;;;;;8.23;31.77;100446.13;5044076;28;20040;-65
2022/02/27 00:37:38;;;;;;;3.23;1.10;;;;;;;8.08;31.59;100422.66;5077394;28;20414;-65
2022/02/27 00:40:06;;;;;;;5.63;1.10;;;;;;;8.43;31.74;100465.69;5077090;28;20050;-66
2022/02/27 00:42:32;;;;;;;1.33;0.93;;;;;;;8.22;31.61;100448.84;5093876;28;20119;-65
2022/02/27 00:44:58;;;;;;;2.67;1.00;;;;;;;8.10;31.57;100455.13;5060461;28;20488;-65
2022/02/27 00:47:24;;;;;;;1.40;1.00;;;;;;;8.19;31.40;100470.28;5077555;28;20039;-65
2022/02/27 00:49:50;;;;;;;1.37;1.00;;;;;;;8.25;31.37;100459.22;5060418;28;20098;-65
2022/02/27 00:52:21;;;;;;;2.60;1.17;;;;;;;8.15;31.74;100467.03;5076936;28;20081;-65
2022/02/27 00:54:47;;;;;;;;;;;;;;;8.62;31.35;100472.97;5061450;28;20043;-65
2022/02/27 00:57:13;;;;;;;3.67;1.23;;;;;;;8.16;31.38;100458.09;5060103;28;20379;-65
2022/02/27 00:59:43;;;;;;;3.47;1.10;;;;;;;7.96;31.51;100428.94;5060221;28;20047;-65
2022/02/27 01:02:10;;;;;;;1.92;1.10;;;;;;;8.24;31.75;100468.16;5076932;28;20048;-66
2022/02/27 01:04:36;;;;;;;3.33;1.73;;;;;;;7.85;31.73;100435.09;5076941;28;20136;-66
2022/02/27 01:07:02;;;;;;;5.93;1.30;;;;;;;8.12;32.23;100469.06;5077272;28;20127;-66
2022/02/27 01:09:28;;;;;;;5.90;1.20;;;;;;;8.04;32.13;100480.25;5077394;28;20518;-65
2022/02/27 01:11:54;;;;;;;5.80;1.50;;;;;;;8.03;32.21;100483.88;5060263;28;20152;-65
2022/02/27 01:14:20;;;;;;;3.83;1.20;;;;;;;8.02;32.36;100486.66;5076475;28;20138;-65
2022/02/27 01:16:45;;;;;;;2.30;1.20;;;;;;;7.95;32.35;100478.34;5059689;28;20039;-65
2022/02/27 01:19:11;;;;;;;6.13;1.40;;;;;;;7.97;32.58;100479.06;5043396;28;20047;-65
2022/02/27 01:21:38;;;;;;;3.13;1.30;;;;;;;8.11;32.65;100484.13;5059927;28;20048;-65
2022/02/27 01:24:07;;;;;;;3.07;1.17;;;;;;;7.96;32.65;100484.50;5076308;28;20047;-65
2022/02/27 01:26:33;;;;;;;4.17;1.10;;;;;;;8.05;32.77;100489.91;5076417;28;20518;-66
2022/02/27 01:29:00;;;;;;;5.77;1.60;;;;;;;7.95;33.07;100485.47;5059956;28;20406;-64
2022/02/27 01:31:27;;;;;;;4.80;1.10;;;;;;;7.88;33.04;100489.53;5076395;28;20043;-65
2022/02/27 01:33:53;;;;;;;3.67;1.20;;;;;;;7.80;33.24;100491.94;5059457;28;20071;-65
2022/02/27 01:36:18;;;;;;;6.83;1.07;;;;;;;7.80;33.30;100491.94;5042893;28;20104;-65
2022/02/27 01:38:47;;;;;;;4.00;1.57;;;;;;;7.87;33.42;100493.97;5059347;28;20052;-65
2022/02/27 01:41:15;;;;;;;4.57;1.30;;;;;;;7.83;33.63;100495.19;5060032;28;20035;-66
2022/02/27 01:43:42;;;;;;;2.63;1.20;;;;;;;7.71;33.59;100490.84;5059018;28;20202;-66
2022/02/27 01:46:10;;;;;;;4.60;1.20;;;;;;;7.77;33.98;100497.47;5076287;28;20051;-66
2022/02/27 01:48:39;;;;;;;3.93;1.33;;;;;;;7.96;34.15;100495.06;5076177;28;20388;-66
2022/02/27 01:51:05;;;;;;;2.40;1.33;;;;;;;7.76;33.82;100499.28;5075975;28;20518;-65
2022/02/27 01:53:32;;;;;;;4.70;1.47;;;;;;;7.67;34.25;100497.31;5059500;28;20047;-65
2022/02/27 01:55:58;;;;;;;4.90;1.33;;;;;;;7.73;34.45;100514.53;5076379;28;20067;-65
2022/02/27 01:58:26;;;;;;;2.63;1.23;;;;;;;7.99;34.44;100513.34;5075996;28;20483;-65
2022/02/27 02:00:52;;;;;;;5.83;1.50;;;;;;;7.77;34.40;100513.31;5075767;28;20052;-65
2022/02/27 02:03:18;;;;;;;2.03;1.20;;;;;;;7.73;34.55;100515.38;5076039;28;20047;-65
2022/02/27 02:05:44;;;;;;;3.50;1.77;;;;;;;7.75;34.47;100531.94;5058966;28;20067;-65
2022/02/27 02:08:09;;;;;;;2.53;1.33;;;;;;;7.55;34.51;100497.44;5059286;28;20055;-66
2022/02/27 02:10:37;;;;;;;2.17;1.23;;;;;;;7.76;34.39;100524.88;5075997;28;20142;-66
2022/02/27 02:13:06;;;;;;;2.90;1.40;;;;;;;7.72;34.79;100523.44;5043126;28;20036;-65
2022/02/27 02:15:32;;;;;;;1.40;1.20;;;;;;;7.67;34.92;100528.22;5059258;28;20036;-66
2022/02/27 02:17:59;;;;;;;3.77;1.43;;;;;;;7.47;35.03;100502.47;5059470;28;20040;-65
2022/02/27 02:20:25;;;;;;;2.87;1.40;;;;;;;7.66;34.99;100537.94;5059045;28;20889;-65
2022/02/27 02:22:55;;;;;;;3.87;1.60;;;;;;;7.61;35.17;100545.38;5060267;28;20035;-65
2022/02/27 02:25:21;;;;;;;5.07;1.30;;;;;;;7.54;35.42;100541.53;5076373;28;20051;-66
2022/02/27 02:27:47;;;;;;;2.83;1.53;;;;;;;7.49;35.36;100543.69;5076366;28;20039;-67
2022/02/27 02:30:15;;;;;;;4.87;1.50;;;;;;;7.51;35.68;100549.69;5043357;28;20127;-66
2022/02/27 02:32:55;;;;;;;5.30;1.73;;;;;;;7.63;35.63;100534.69;5075991;28;20566;-65
2022/02/27 02:35:25;;;;;;;3.10;1.77;;;;;;;7.69;35.87;100561.50;5076076;28;20500;-65
2022/02/27 02:37:51;;;;;;;4.87;1.70;;;;;;;7.30;36.21;100553.97;5092477;28;20104;-65
2022/02/27 02:40:17;;;;;;;2.97;1.57;;;;;;;7.23;36.17;100546.59;5075698;28;20043;-65
2022/02/27 02:42:44;;;;;;;1.97;1.27;;;;;;;7.46;36.36;100556.28;5075784;28;20500;-66
2022/02/27 02:45:12;;;;;;;2.87;1.17;;;;;;;7.48;36.58;100570.22;5092252;28;20142;-65
2022/02/27 02:47:46;;;;;;;2.17;1.20;;;;;;;7.52;36.39;100567.25;5092354;28;20048;-66
2022/02/27 02:50:14;;;;;;;3.37;1.50;;;;;;;7.30;37.38;100569.81;5042500;28;20566;-66
2022/02/27 02:52:40;;;;;;;6.10;1.40;;;;;;;7.18;37.32;100580.47;5058869;28;20043;-66
2022/02/27 02:55:09;;;;;;;4.10;1.30;;;;;;;7.23;37.46;100565.94;5044264;28;20097;-65
2022/02/27 02:57:34;;;;;;;3.47;1.80;;;;;;;7.08;37.57;100576.81;5079538;28;20050;-65
2022/02/27 03:00:00;;;;;;;3.17;1.33;;;;;;;7.09;38.00;100586.44;5062570;28;20047;-66
2022/02/27 03:02:26;;;;;;;3.97;1.63;;;;;;;6.90;37.89;100553.44;5062063;28;20134;-66
2022/02/27 03:04:52;;;;;;;2.23;1.40;;;;;;;6.99;38.08;100590.69;5061983;28;20135;-66
2022/02/27 03:07:18;;;;;;;3.23;1.40;;;;;;;6.98;38.40;100592.47;5095887;28;20051;-66
2022/02/27 03:09:44;;;;;;;2.77;1.37;;;;;;;6.96;38.41;100594.41;5045241;28;20047;-65
2022/02/27 03:12:10;;;;;;;5.50;2.07;;;;;;;6.98;38.46;100602.22;5062428;28;20263;-66
2022/02/27 03:14:35;;;;;;;3.43;1.40;;;;;;;7.00;38.42;100609.06;5062287;28;20039;-65
2022/02/27 03:17:01;;;;;;;4.53;2.00;;;;;;;6.87;38.80;100601.19;5045573;28;20078;-66
2022/02/27 03:19:27;;;;;;;2.77;1.43;;;;;;;6.86;38.94;100603.94;5079150;28;20047;-66
2022/02/27 03:21:53;;;;;;;4.87;2.00;;;;;;;6.98;38.93;100608.31;5061763;28;20039;-65
2022/02/27 03:24:19;;;;;;;5.40;1.63;;;;;;;7.00;38.83;100610.84;5045311;28;20047;-65
2022/02/27 03:26:45;;;;;;;5.23;1.87;;;;;;;6.99;38.90;100619.75;5061828;28;20371;-65
2022/02/27 03:29:11;;;;;;;3.77;1.53;;;;;;;6.97;39.10;100614.56;5062025;28;20044;-66
2022/02/27 03:31:38;;;;;;;2.77;1.73;;;;;;;7.02;39.12;100627.44;5062150;28;20146;-66
2022/02/27 03:34:04;;;;;;;3.70;1.60;;;;;;;6.93;39.16;100630.75;5078643;28;20543;-66
2022/02/27 03:36:29;;;;;;;2.13;1.77;;;;;;;6.95;39.14;100626.22;5061504;28;20161;-65
2022/02/27 03:38:55;;;;;;;2.30;1.80;;;;;;;6.92;39.23;100645.75;5044936;28;20046;-65
2022/02/27 03:41:21;;;;;;;6.10;1.60;;;;;;;6.95;39.10;100647.34;5061599;28;20084;-66
2022/02/27 03:43:47;;;;;;;5.90;2.00;;;;;;;6.90;39.50;100643.22;5061384;28;20044;-66
2022/02/27 03:46:13;;;;;;;5.20;1.90;;;;;;;6.87;39.61;100645.25;5061417;28;20036;-65
2022/02/27 03:48:40;;;;;;;1.87;1.50;;;;;;;6.83;39.75;100649.03;5061558;28;20083;-66
2022/02/27 03:51:07;;;;;;;6.57;2.10;;;;;;;6.93;39.58;100667.72;5061995;28;20044;-66
2022/02/27 03:53:33;;;;;;;5.53;1.50;;;;;;;6.73;39.64;100648.84;5077933;28;20043;-66
2022/02/27 03:55:59;;;;;;;3.87;1.80;;;;;;;6.83;39.82;100668.38;5061068;28;20048;-65
2022/02/27 03:58:24;;;;;;;4.03;1.50;;;;;;;6.84;39.96;100675.34;5095010;28;20499;-66
2022/02/27 04:00:50;;;;;;;4.40;2.00;;;;;;;6.79;39.76;100666.94;5094723;28;20051;-66
2022/02/27 04:03:16;;;;;;;2.90;2.07;;;;;;;6.86;39.71;100684.00;5094530;28;20047;-65
2022/02/27 04:05:42;;;;;;;5.53;1.83;;;;;;;6.83;39.89;100692.16;5094375;28;20039;-66
2022/02/27 04:08:08;;;;;;;4.03;2.10;;;;;;;6.92;39.97;100692.44;5060946;28;20052;-67
2022/02/27 04:10:34;;;;;;;4.10;1.90;;;;;;;6.61;40.06;100668.19;5113498;28;20047;-66
2022/02/27 04:13:00;;;;;;;4.63;2.27;;;;;;;6.58;40.24;100664.97;5078373;28;20048;-65
2022/02/27 04:15:26;;;;;;;3.00;2.00;;;;;;;6.70;40.32;100707.16;5061002;28;20042;-65
2022/02/27 04:17:52;;;;;;;4.03;2.00;;;;;;;6.66;40.49;100708.31;5044114;28;20074;-66
2022/02/27 04:20:18;;;;;;;6.20;2.17;;;;;;;6.61;40.26;100691.13;5094166;28;20048;-65
2022/02/27 04:22:45;;;;;;;3.90;2.13;;;;;;;6.64;40.16;100715.50;5077356;28;20031;-66
2022/02/27 04:25:11;;;;;;;6.83;2.00;;;;;;;6.50;40.02;100715.59;5061183;28;20046;-65
2022/02/27 04:27:38;;;;;;;5.10;1.97;;;;;;;6.46;40.15;100727.34;5077945;28;20066;-65
2022/02/27 04:30:04;;;;;;;4.60;1.63;;;;;;;6.51;39.74;100735.78;5044156;28;20130;-67
2022/02/27 04:32:30;;;;;;;2.83;1.77;;;;;;;6.41;39.45;100747.09;5077156;28;20036;-66
2022/02/27 04:34:56;;;;;;;2.03;1.83;;;;;;;6.20;39.31;100724.78;5043838;28;20461;-66
2022/02/27 04:37:22;;;;;;;3.23;1.60;;;;;;;6.13;39.27;100740.22;5077310;28;20039;-66
2022/02/27 04:39:48;;;;;;;4.57;1.60;;;;;;;6.20;39.33;100745.88;5077243;28;20040;-66
2022/02/27 04:42:14;;;;;;;3.87;1.60;;;;;;;6.05;39.07;100750.41;5060441;28;20035;-66
2022/02/27 04:44:41;;;;;;;5.87;2.00;;;;;;;5.94;39.15;100744.16;5043865;28;20043;-65
2022/02/27 04:47:09;;;;;;;2.77;1.70;;;;;;;6.07;39.14;100758.22;5077215;28;20069;-66
2022/02/27 04:49:36;;;;;;;4.90;1.80;;;;;;;5.84;39.21;100732.53;5093898;28;20047;-66
2022/02/27 04:52:03;;;;;;;2.70;1.80;;;;;;;6.02;38.63;100761.16;5076955;28;20039;-66
2022/02/27 04:54:29;;;;;;;3.23;1.70;;;;;;;5.83;38.64;100763.31;5077052;28;20067;-65
2022/02/27 04:56:55;;;;;;;3.07;1.80;;;;;;;5.76;38.76;100772.56;5076822;28;20113;-65
2022/02/27 04:59:21;;;;;;;3.90;1.73;;;;;;;5.63;38.87;100773.47;5076928;28;20059;-65
2022/02/27 05:01:46;;;;;;;5.03;1.83;;;;;;;5.55;39.04;100773.09;5076720;28;20050;-65
2022/02/27 05:04:12;;;;;;;2.53;1.70;;;;;;;5.55;38.59;100773.94;5060131;28;20047;-65
2022/02/27 05:06:38;;;;;;;5.27;1.67;;;;;;;5.65;39.04;100777.69;5043374;28;20047;-65
2022/02/27 05:09:05;;;;;;;2.30;1.60;;;;;;;5.64;39.18;100790.94;5059609;28;20052;-65
2022/02/27 05:11:31;;;;;;;3.70;1.60;;;;;;;5.49;39.03;100781.41;5111646;28;20046;-65
2022/02/27 05:13:57;;;;;;;3.63;2.20;;;;;;;5.48;38.99;100791.09;5076406;28;20047;-65
2022/02/27 05:16:22;;;;;;;4.47;1.73;;;;;;;5.52;38.88;100784.66;5059702;28;20036;-65
2022/02/27 05:18:48;;;;;;;6.47;1.80;;;;;;;5.53;38.95;100786.38;5076337;28;20508;-65
2022/02/27 05:21:14;;;;;;;2.07;1.60;;;;;;;5.56;38.63;100791.44;5076748;28;20043;-65
2022/02/27 05:23:40;;;;;;;7.83;1.70;;;;;;;5.52;38.54;100795.19;5059449;28;20051;-65
2022/02/27 05:26:05;;;;;;;5.43;1.90;;;;;;;5.58;38.35;100807.97;5059592;28;20534;-65
2022/02/27 05:28:31;;;;;;;6.70;2.07;;;;;;;5.43;38.43;100794.97;5111318;28;20173;-65
2022/02/27 05:30:57;;;;;;;6.33;1.47;;;;;;;5.31;37.98;100788.66;5059339;28;20032;-65
2022/02/27 05:33:23;;;;;;;7.00;1.90;;;;;;;5.30;37.94;100818.59;5076506;28;20047;-65
2022/02/27 05:35:49;;;;;;;2.63;1.60;;;;;;;5.24;37.50;100813.72;5042989;28;20120;-66
2022/02/27 05:38:15;;;;;;;4.10;1.60;;;;;;;5.22;37.56;100818.22;5059519;28;20548;-65
2022/02/27 05:40:40;;;;;;;7.20;1.50;;;;;;;5.35;37.39;100829.66;5075951;28;20054;-65
2022/02/27 05:43:07;;;;;;;6.90;2.70;;;;;;;5.42;37.18;100827.50;5059391;28;20426;-65
2022/02/27 05:45:34;;;;;;;3.27;2.00;;;;;;;5.26;36.94;100797.81;5076463;28;20135;-65
2022/02/27 05:47:59;;;;;;;2.23;1.40;;;;;;;5.51;36.45;100842.72;5075975;28;20101;-65
2022/02/27 05:50:25;;;;;;;4.07;1.50;;;;;;;5.54;36.61;100837.25;5042500;28;20040;-65
2022/02/27 05:52:51;;;;;;;1.40;1.20;;;;;;;5.53;36.30;100848.75;5059119;28;20043;-66
2022/02/27 05:55:17;;;;;;;2.77;1.40;;;;;;;5.46;36.33;100843.03;5059478;28;20112;-65
2022/02/27 05:57:43;;;;;;;4.80;1.70;;;;;;;5.36;36.03;100841.91;5042894;28;20044;-66
2022/02/27 06:00:09;;;;;;;4.80;2.57;;;;;;;5.35;35.82;100827.03;5059150;28;20040;-66
2022/02/27 06:02:35;;;;;;;4.60;1.73;;;;;;;5.40;35.96;100853.94;5092796;28;20047;-65
2022/02/27 06:05:01;;;;;;;2.87;1.80;;;;;;;5.43;35.65;100858.19;5075601;28;20093;-65
2022/02/27 06:07:27;;;;;;;4.90;1.40;;;;;;;5.43;35.46;100869.56;5059041;28;20438;-65
2022/02/27 06:09:52;;;;;;;2.33;1.70;;;;;;;5.49;35.33;100863.09;5092553;28;20059;-66
2022/02/27 06:12:18;;;;;;;3.03;2.03;;;;;;;5.51;35.56;100874.34;5075565;28;20039;-68
2022/02/27 06:14:44;;;;;;;4.80;1.90;;;;;;;5.61;35.10;100883.38;5076174;28;20051;-66
2022/02/27 06:17:10;;;;;;;3.43;1.80;;;;;;;5.63;34.93;100890.25;5042356;28;20044;-66
2022/02/27 06:19:36;;;;;;;3.30;1.70;;;;;;;5.63;35.00;100877.06;5042293;28;20531;-65
2022/02/27 06:22:02;;;;;;;3.20;1.73;;;;;;;5.73;35.03;100888.72;5058674;28;20043;-65
2022/02/27 06:24:28;;;;;;;3.73;1.87;;;;;;;5.65;35.11;100890.16;5042347;28;20052;-65
2022/02/27 06:26:54;;;;;;;4.90;1.70;;;;;;;5.68;35.04;100889.94;5058788;28;20403;-66
2022/02/27 06:29:20;;;;;;;9.07;2.27;;;;;;;5.78;35.07;100905.09;5059718;28;20051;-65
2022/02/27 06:31:46;;;;;;;2.87;2.10;;;;;;;5.76;34.76;100908.78;5079783;28;20414;-65
2022/02/27 06:34:13;;;;;;;7.03;2.33;;;;;;;5.65;34.74;100875.19;5062782;28;20048;-65
2022/02/27 06:36:39;;;;;;;7.77;2.63;;;;;;;5.88;34.68;100902.75;5096449;28;20067;-65
2022/02/27 06:39:04;;;;;;;9.00;2.93;;;;;;;6.04;34.18;100892.94;5062551;28;20078;-66
2022/02/27 06:41:30;;;;;;;7.10;2.63;;;;;;;6.28;33.91;100905.38;5045885;28;20050;-66
2022/02/27 06:43:56;;;;;;;6.07;2.50;;;;;;;6.57;33.14;100921.91;5062473;28;20047;-65
2022/02/27 06:46:22;;;;;;;5.40;2.07;;;;;;;6.82;32.58;100917.56;5096144;28;20062;-66
2022/02/27 06:48:48;;;;;;;3.27;1.23;;;;;;;7.07;32.06;100924.66;5062635;28;20058;-65
2022/02/27 06:51:14;;;;;;;3.13;1.40;;;;;;;7.08;31.84;100901.72;5045685;28;20055;-66
2022/02/27 06:53:40;;;;;;;4.30;1.73;;;;;;;7.40;31.62;100929.41;5045833;28;20134;-65
2022/02/27 06:56:06;;;;;;;5.13;1.60;;;;;;;7.58;30.96;100936.88;5046013;28;20530;-65
2022/02/27 06:58:31;;;;;;;7.57;1.40;;;;;;;7.60;31.11;100928.84;5062673;28;20054;-66
2022/02/27 07:00:57;;;;;;;6.67;2.43;;;;;;;7.62;30.75;100932.25;5045851;28;20043;-65
2022/02/27 07:03:24;;;;;;;12.87;4.03;;;;;;;7.58;30.91;100938.72;5062117;28;20066;-66
2022/02/27 07:05:50;;;;;;;5.07;2.60;;;;;;;7.66;30.79;100939.00;5079538;28;20134;-65
2022/02/27 07:08:16;;;;;;;5.00;2.27;;;;;;;7.64;30.55;100946.22;5079109;28;20143;-65
2022/02/27 07:10:42;;;;;;;2.83;1.83;;;;;;;7.69;30.42;100950.22;5062385;28;20159;-65
2022/02/27 07:13:08;;;;;;;3.83;1.90;;;;;;;7.79;30.01;100937.19;5062200;28;20127;-65
2022/02/27 07:15:34;;;;;;;8.47;1.40;;;;;;;7.93;29.72;100937.88;5062668;28;20047;-65
2022/02/27 07:18:01;;;;;;;3.33;1.50;;;;;;;8.01;29.71;100945.28;5079544;28;20130;-65
2022/02/27 07:20:27;;;;;;;4.05;1.40;;;;;;;8.15;29.49;100943.31;5062321;28;20043;-65
2022/02/27 07:22:53;;;;;;;5.83;1.70;;;;;;;8.67;28.73;100951.00;5078823;28;20047;-67
2022/02/27 07:25:18;;;;;;;5.97;1.90;;;;;;;10.09;27.36;100946.84;5062290;28;20388;-66
2022/02/27 07:27:44;;;;;;;3.08;2.15;;;;;;;11.79;24.99;100958.13;5062138;28;20044;-66
2022/02/27 07:30:12;;;;;;;3.67;1.90;;;;;;;12.62;23.50;100940.81;5078905;28;20104;-66
2022/02/27 07:32:38;;;;;;;10.30;1.83;;;;;;;13.11;22.98;100963.84;5061935;28;20134;-66
2022/02/27 07:35:04;;;;;;;7.32;1.95;;;;;;;13.38;22.50;100950.59;5061790;28;20050;-66
2022/02/27 07:37:30;;;;;;;3.25;1.60;;;;;;;12.99;22.32;100927.63;5061693;28;20062;-66
2022/02/27 07:39:56;;;;;;;4.28;1.92;;;;;;;12.82;22.60;100953.13;5094470;28;20066;-66
2022/02/27 07:42:22;;;;;;;2.70;1.77;;;;;;;12.55;22.86;100945.00;5045144;28;20048;-66
2022/02/27 07:44:48;;;;;;;3.72;1.95;;;;;;;12.27;23.00;100953.78;5061668;28;20142;-66
2022/02/27 07:47:14;;;;;;;4.70;2.00;;;;;;;12.13;23.10;100951.50;5061558;28;20042;-66
2022/02/27 07:49:39;;;;;;;7.65;2.60;;;;;;;12.01;23.69;100951.78;5061610;28;20039;-66
2022/02/27 07:52:06;;;;;;;9.25;3.17;;;;;;;11.92;23.96;100948.09;5044865;28;20567;-66
2022/02/27 07:54:31;;;;;;;4.07;2.03;;;;;;;11.44;24.06;100955.81;5061344;28;20108;-66
2022/02/27 07:56:57;;;;;;;7.55;2.15;;;;;;;11.24;24.43;100963.81;5078148;28;20047;-66
2022/02/27 07:59:23;;;;;;;10.00;4.38;;;;;;;11.06;24.74;100955.56;5045132;28;20042;-66
2022/02/27 08:01:49;;;;;;;10.75;5.93;;;;;;;10.79;24.90;100962.34;5061340;28;20211;-66
2022/02/27 08:04:15;;;;;;;11.05;5.00;;;;;;;10.59;25.39;100965.81;5044575;28;20048;-66
2022/02/27 08:06:41;;;;;;;10.15;4.60;;;;;;;10.31;25.95;100938.00;5078165;28;20512;-66
2022/02/27 08:09:07;;;;;;;8.63;2.88;;;;;;;10.42;25.87;100958.38;5077668;28;20085;-66
2022/02/27 08:11:35;;;;;;;4.53;2.00;;;;;;;10.32;25.98;100958.28;5044487;28;20075;-66
2022/02/27 08:14:01;;;;;;;11.93;2.35;;;;;;;10.24;26.33;100964.19;5044011;28;20043;-66
2022/02/27 08:16:27;;;;;;;10.07;2.60;;;;;;;10.16;26.26;100968.47;5044233;28;20062;-67
2022/02/27 08:18:53;;;;;;;5.60;2.40;;;;;;;10.00;26.59;100971.47;5061125;28;20043;-66
2022/02/27 08:21:19;;;;;;;5.28;2.08;;;;;;;9.78;26.74;100966.16;5044325;28;20050;-66
2022/02/27 08:23:44;;;;;;;9.93;2.50;;;;;;;9.60;26.93;100969.38;5044048;28;20035;-67
2022/02/27 08:26:10;;;;;;;5.88;2.60;;;;;;;9.48;27.25;100965.03;5043944;28;20043;-66
2022/02/27 08:28:36;;;;;;;5.38;2.13;;;;;;;9.38;27.20;100967.56;5060653;28;20087;-66
2022/02/27 08:31:02;;;;;;;7.60;2.97;;;;;;;9.28;27.39;100965.72;5094088;28;20514;-66
2022/02/27 08:33:28;;;;;;;9.43;2.90;;;;;;;9.18;27.59;100964.75;5044031;28;20039;-67
2022/02/27 08:35:58;;;;;;;15.00;2.85;;;;;;;9.02;27.64;100953.63;5060882;28;20119;-66
2022/02/27 08:38:24;;;;;;;6.35;2.70;;;;;;;8.70;27.77;100940.16;5078020;28;20043;-67
2022/02/27 08:40:53;;;;;;;4.78;3.10;;;;;;;8.69;27.98;100964.13;5077461;28;20422;-66
2022/02/27 08:43:20;;;;;;;9.15;2.67;;;;;;;8.56;27.96;100966.81;5077763;28;20043;-67
2022/02/27 08:45:46;;;;;;;5.13;2.30;;;;;;;8.47;27.92;100970.16;5060273;28;20039;-67
2022/02/27 08:48:11;;;;;;;3.58;2.15;;;;;;;8.33;27.64;100972.94;5043948;28;20503;-67
2022/02/27 08:50:37;;;;;;;3.53;2.10;;;;;;;8.14;27.29;100969.91;5043860;28;20043;-66
2022/02/27 08:53:03;;;;;;;3.03;1.75;;;;;;;8.15;27.58;100979.53;5075826;28;20122;-66
2022/02/27 08:55:29;;;;;;;2.85;2.10;;;;;;;8.32;27.33;100976.53;5043187;28;20156;-65
2022/02/27 08:57:55;;;;;;;3.47;2.10;;;;;;;8.83;27.00;100975.34;5093860;28;20051;-65
2022/02/27 09:00:21;;;;;;;3.97;2.53;;;;;;;9.15;26.28;100968.47;5059618;28;20097;-66
2022/02/27 09:02:48;;;;;;;4.20;2.08;;;;;;;9.18;26.21;100978.03;5093370;28;20579;-65
2022/02/27 09:05:14;;;;;;;5.55;1.80;;;;;;;9.20;26.05;100986.69;5076228;28;20043;-65
2022/02/27 09:07:41;;;;;;;6.93;2.25;;;;;;;9.46;25.77;100998.78;5042905;28;20035;-65
2022/02/27 09:10:08;;;;;;;3.60;1.88;;;;;;;10.80;24.40;100998.56;5076098;28;20040;-66
2022/02/27 09:12:35;;;;;;;6.72;1.85;;;;;;;11.01;24.19;100999.47;5093061;28;20097;-65
2022/02/27 09:15:01;;;;;;;3.83;2.28;;;;;;;10.78;24.28;101003.19;5111171;28;20080;-65
2022/02/27 09:17:27;;;;;;;10.45;2.10;;;;;;;10.24;24.56;100996.06;5059361;28;20093;-65
2022/02/27 09:19:53;;;;;;;6.70;2.03;;;;;;;10.01;25.10;101010.28;5058954;28;20043;-66
2022/02/27 09:22:19;;;;;;;2.58;1.80;;;;;;;9.65;25.19;100999.06;5055753;28;20733;-66
2022/02/27 09:24:45;;;;;;;3.42;1.70;;;;;;;9.55;25.72;100993.63;5056121;28;20525;-66
2022/02/27 09:27:11;;;;;;;6.85;1.70;;;;;;;9.71;25.44;100998.59;5073120;28;20047;-66
2022/02/27 09:29:37;;;;;;;2.47;1.40;;;;;;;9.89;25.14;100998.00;5055621;28;20381;-66
2022/02/27 09:32:03;;;;;;;2.75;1.35;;;;;;;10.03;25.01;101003.06;5055960;28;20040;-67
2022/02/27 09:34:29;;;;;;;6.55;1.70;;;;;;;10.22;24.89;101005.13;5039181;28;20039;-65
2022/02/27 09:36:55;;;;;;;4.53;1.90;;;;;;;10.46;24.44;101003.16;5039373;28;20066;-66
2022/02/27 09:39:21;;;;;;;2.67;1.50;;;;;;;10.82;24.37;101007.28;5055837;28;20070;-66
2022/02/27 09:41:47;;;;;;;3.78;1.35;;;;;;;11.04;24.01;101010.69;5089424;28;20040;-66
2022/02/27 09:44:13;;;;;;;3.67;1.50;;;;;;;11.12;23.36;100989.63;5038733;28;20036;-65
2022/02/27 09:46:39;;;;;;;9.55;1.60;;;;;;;11.31;23.63;101012.84;5031168;28;20055;-65
2022/02/27 09:49:06;;;;;;;3.55;1.42;;;;;;;11.30;23.28;101003.19;5022769;28;20420;-65
2022/02/27 09:51:32;;;;;;;3.95;1.60;;;;;;;11.21;23.15;101027.91;5054901;28;20039;-65
2022/02/27 09:53:58;;;;;;;4.30;2.35;;;;;;;11.17;23.35;101026.47;5022148;28;20135;-65
2022/02/27 09:56:24;;;;;;;3.72;2.40;;;;;;;11.28;23.30;101027.25;5039038;28;20483;-66
2022/02/27 09:58:50;;;;;;;5.63;1.90;;;;;;;11.48;23.17;101020.25;5056443;28;20047;-65
2022/02/27 10:01:17;;;;;;;6.00;1.80;;;;;;;11.67;22.93;101007.06;5055977;28;20047;-65
2022/02/27 10:03:44;;;;;;;3.65;2.30;;;;;;;12.55;22.08;101018.78;5090525;28;20059;-64
2022/02/27 10:06:18;;;;;;;6.38;2.33;;;;;;;12.89;21.76;100998.75;5022614;28;20042;-65
2022/02/27 10:08:46;;;;;;;12.98;2.05;;;;;;;13.33;21.50;101024.91;5052672;28;20098;-65
2022/02/27 10:11:21;;;;;;;4.03;2.40;;;;;;;13.58;20.36;101010.94;5036187;28;20102;-65
2022/02/27 10:13:57;;;;;;;11.10;3.25;;;;;;;13.45;20.76;101019.25;5071061;28;20055;-65
2022/02/27 10:16:29;;;;;;;6.07;3.08;;;;;;;13.56;20.60;101021.78;5051919;28;20040;-66
2022/02/27 10:19:00;;;;;;;4.22;2.95;;;;;;;15.16;19.22;101006.03;5051692;28;20153;-66
2022/02/27 10:21:34;;;;;;;5.70;1.80;;;;;;;17.19;17.25;101013.91;5068627;28;20059;-66
2022/02/27 10:24:05;;;;;;;4.60;2.42;;;;;;;18.73;15.58;101013.41;5019092;28;20040;-66
2022/02/27 10:26:32;;;;;;;;;;;;;;;21.42;13.71;101022.59;5069270;28;20128;-66
2022/02/27 10:29:23;;;;;;;6.15;2.30;;;;;;;23.76;12.18;101013.84;5052000;28;20364;-66
2022/02/27 10:31:54;;;;;;;3.33;2.00;;;;;;;23.21;12.04;101010.47;5051788;28;20059;-67
2022/02/27 10:34:24;;;;;;;4.10;1.90;;;;;;;23.44;12.09;101011.97;5035632;28;20041;-66
2022/02/27 10:37:04;;;;;;;10.77;2.28;;;;;;;22.24;11.81;101004.69;5051787;28;20075;-67
2022/02/27 10:39:51;;;;;;;5.53;2.00;;;;;;;21.62;12.38;100985.72;5035605;28;20387;-67
2022/02/27 10:42:19;;;;;;;6.97;2.88;;;;;;;22.09;12.32;100988.59;5035353;28;20047;-66
2022/02/27 10:45:06;;;;;;;3.55;2.53;;;;;;;24.17;10.44;101023.41;5041809;28;20102;-66
2022/02/27 10:47:37;;;;;;;4.20;2.78;;;;;;;25.33;9.84;101006.81;5031902;28;20049;-66
2022/02/27 10:50:10;;;;;;;8.73;3.35;;;;;;;26.99;8.78;100998.31;5049850;28;20037;-66
2022/02/27 10:52:43;;;;;;;10.77;3.10;;;;;;;27.86;8.10;101012.88;4999087;28;20049;-67
2022/02/27 10:55:09;;;;;;;6.47;2.28;;;;;;;27.42;8.31;101013.41;5031877;28;20463;-66
2022/02/27 10:57:36;;;;;;;4.47;2.53;;;;;;;26.33;8.69;101020.13;5031653;28;20037;-69
2022/02/27 11:00:13;;;;;;;7.38;2.20;;;;;;;25.78;9.53;101023.81;5032013;28;20527;-67
2022/02/27 11:02:39;;;;;;;5.65;2.30;;;;;;;25.69;9.28;101019.72;5015203;28;20120;-68
2022/02/27 11:05:10;;;;;;;5.65;2.03;;;;;;;26.88;8.73;101023.66;5031483;28;20127;-67
2022/02/27 11:07:39;;;;;;;5.10;1.92;;;;;;;27.60;8.55;101023.44;5035016;28;20505;-66
2022/02/27 11:10:13;;;;;;;4.22;2.20;;;;;;;28.26;7.61;101017.63;5071419;28;20426;-69
2022/02/27 11:12:40;;;;;;;2.38;2.10;;;;;;;28.90;7.53;101020.94;5038262;28;20040;-66
2022/02/27 11:15:08;;;;;;;6.00;2.15;;;;;;;29.57;7.27;101016.41;5022050;28;20093;-69
2022/02/27 11:17:34;;;;;;;10.80;2.97;;;;;;;30.15;6.93;101015.97;5058609;28;20123;-66
2022/02/27 11:20:01;;;;;;;11.60;3.70;;;;;;;30.62;6.65;101018.00;5041550;28;20108;-67
2022/02/27 11:22:29;;;;;;;9.13;2.10;;;;;;;30.93;6.31;101020.06;5075088;28;20044;-67
2022/02/27 11:24:57;;;;;;;13.60;2.30;;;;;;;31.12;6.21;101024.06;5041782;28;20040;-66
2022/02/27 11:27:27;;;;;;;4.50;2.30;;;;;;;30.73;6.52;101007.97;5058413;28;20044;-66
2022/02/27 11:29:58;;;;;;;7.43;2.22;;;;;;;30.80;6.04;101016.84;5092802;28;20164;-66